createdAt,value
2018-11-12T00:00:02.053Z,21.23
2018-11-12T00:02:31.272Z,24.80
2018-11-12T00:05:00.329Z,21.87
2018-11-12T00:07:29.105Z,22.83
2018-11-12T00:09:57.982Z,22.17
2018-11-12T00:12:26.703Z,22.57
2018-11-12T00:14:55.585Z,22.87
2018-11-12T00:17:24.536Z,21.53
2018-11-12T00:19:53.047Z,23.97
2018-11-12T00:22:22.152Z,20.87
2018-11-12T00:24:51.081Z,25.43
2018-11-12T00:27:20.033Z,24.33
2018-11-12T00:29:48.917Z,22.40
2018-11-12T00:32:18.125Z,21.20
2018-11-12T00:34:46.456Z,22.07
2018-11-12T00:37:15.456Z,20.60
2018-11-12T00:39:44.432Z,21.80
2018-11-12T00:42:13.902Z,17.90
2018-11-12T00:44:43.352Z,22.23
2018-11-12T00:47:12.999Z,20.07
2018-11-12T00:49:42.310Z,17.77
2018-11-12T00:52:11.591Z,18.53
2018-11-12T00:54:41.206Z,19.83
2018-11-12T00:57:10.407Z,16.23
2018-11-12T00:59:43.353Z,16.87
2018-11-12T01:02:12.309Z,16.27
2018-11-12T01:04:41.488Z,14.20
2018-11-12T01:07:10.648Z,16.73
2018-11-12T01:09:39.798Z,18.37
2018-11-12T01:12:08.788Z,16.63
2018-11-12T01:14:38.019Z,16.77
2018-11-12T01:17:07.479Z,15.87
2018-11-12T01:19:36.764Z,17.67
2018-11-12T01:22:05.901Z,17.40
2018-11-12T01:24:35.207Z,17.60
2018-11-12T01:27:04.205Z,14.77
2018-11-12T01:29:33.419Z,14.70
2018-11-12T01:32:02.710Z,13.63
2018-11-12T01:34:31.038Z,14.63
2018-11-12T01:37:00.236Z,12.27
2018-11-12T01:39:29.037Z,14.10
2018-11-12T01:41:58.103Z,12.00
2018-11-12T01:44:27.187Z,13.60
2018-11-12T01:46:56.328Z,14.23
2018-11-12T01:49:25.490Z,14.43
2018-11-12T01:51:54.488Z,14.30
2018-11-12T01:54:23.705Z,15.80
2018-11-12T01:56:52.482Z,17.20
2018-11-12T01:59:21.400Z,17.03
2018-11-12T02:01:50.438Z,14.63
2018-11-12T02:04:19.176Z,16.00
2018-11-12T02:06:47.960Z,15.27
2018-11-12T02:09:17.265Z,13.57
2018-11-12T02:11:47.414Z,14.07
2018-11-12T02:14:16.728Z,15.57
2018-11-12T02:16:45.516Z,20.07
2018-11-12T02:19:14.444Z,18.10
2018-11-12T02:21:43.173Z,17.03
2018-11-12T02:24:12.073Z,20.40
2018-11-12T02:26:41.082Z,20.40
2018-11-12T02:29:09.871Z,20.27
2018-11-12T02:31:38.784Z,19.20
2018-11-12T02:34:07.956Z,21.27
2018-11-12T02:36:36.543Z,24.53
2018-11-12T02:39:07.705Z,24.27
2018-11-12T02:41:36.715Z,24.77
2018-11-12T02:44:07.225Z,23.77
2018-11-12T02:46:37.083Z,25.03
2018-11-12T02:49:06.239Z,32.60
2018-11-12T02:51:35.468Z,37.37
2018-11-12T02:54:04.857Z,37.37
2018-11-12T02:56:34.152Z,39.93
2018-11-12T02:59:03.299Z,38.10
2018-11-12T03:01:32.797Z,37.63
2018-11-12T03:04:01.657Z,35.47
2018-11-12T03:06:31.281Z,38.43
2018-11-12T03:09:00.453Z,35.60
2018-11-12T03:11:30.084Z,36.03
2018-11-12T03:14:00.028Z,34.50
2018-11-12T03:16:29.253Z,30.37
2018-11-12T03:18:58.209Z,27.90
2018-11-12T03:21:27.570Z,31.30
2018-11-12T03:23:56.896Z,27.47
2018-11-12T03:26:25.584Z,27.50
2018-11-12T03:28:54.485Z,28.23
2018-11-12T03:31:23.249Z,28.23
2018-11-12T03:33:52.621Z,30.20
2018-11-12T03:36:21.286Z,27.07
2018-11-12T03:38:50.413Z,30.53
2018-11-12T03:41:19.759Z,35.57
2018-11-12T03:43:49.052Z,36.60
2018-11-12T03:46:18.380Z,33.40
2018-11-12T03:48:47.502Z,34.30
2018-11-12T03:51:16.224Z,40.97
2018-11-12T03:53:45.069Z,44.60
2018-11-12T03:56:14.128Z,43.97
2018-11-12T03:58:43.689Z,45.93
2018-11-12T04:01:13.001Z,43.47
2018-11-12T04:03:42.681Z,45.23
2018-11-12T04:06:11.697Z,46.90
2018-11-12T04:08:41.505Z,47.77
2018-11-12T04:11:10.424Z,44.97
2018-11-12T04:13:39.680Z,51.70
2018-11-12T04:16:09.013Z,49.87
2018-11-12T04:18:38.302Z,50.50
2018-11-12T04:21:07.216Z,52.87
2018-11-12T04:23:36.242Z,48.13
2018-11-12T04:26:05.123Z,50.53
2018-11-12T04:28:34.222Z,52.73
2018-11-12T04:31:03.555Z,50.07
2018-11-12T04:33:32.626Z,46.60
2018-11-12T04:36:01.357Z,45.50
2018-11-12T04:38:29.989Z,45.63
2018-11-12T04:40:59.619Z,43.20
2018-11-12T04:43:28.445Z,41.33
2018-11-12T04:45:57.911Z,39.17
2018-11-12T04:48:26.919Z,35.20
2018-11-12T04:50:55.920Z,37.97
2018-11-12T04:53:25.074Z,36.83
2018-11-12T04:55:53.809Z,42.23
2018-11-12T04:58:23.110Z,39.40
2018-11-12T05:00:52.305Z,37.97
2018-11-12T05:03:21.115Z,41.30
2018-11-12T05:05:50.649Z,40.03
2018-11-12T05:08:19.613Z,43.50
2018-11-12T05:10:48.441Z,41.28
2018-11-12T05:13:17.652Z,39.33
2018-11-12T05:15:46.693Z,34.47
2018-11-12T05:18:15.729Z,40.63
2018-11-12T05:20:44.793Z,38.57
2018-11-12T05:23:13.866Z,37.10
2018-11-12T05:25:43.237Z,37.70
2018-11-12T05:28:12.616Z,35.17
2018-11-12T05:30:41.597Z,37.10
2018-11-12T05:33:10.307Z,39.37
2018-11-12T05:35:40.149Z,40.40
2018-11-12T05:38:09.415Z,38.27
2018-11-12T05:40:38.707Z,40.90
2018-11-12T05:43:07.630Z,40.93
2018-11-12T05:45:36.329Z,43.07
2018-11-12T05:48:05.629Z,49.57
2018-11-12T05:50:35.756Z,42.97
2018-11-12T05:53:05.141Z,45.07
2018-11-12T05:55:34.733Z,43.20
2018-11-12T05:58:04.157Z,44.23
2018-11-12T06:00:40.025Z,43.13
2018-11-12T06:03:08.601Z,47.27
2018-11-12T06:05:37.328Z,45.10
2018-11-12T06:08:06.121Z,47.57
2018-11-12T06:10:35.606Z,49.33
2018-11-12T06:13:04.971Z,45.13
2018-11-12T06:15:34.933Z,57.57
2018-11-12T06:18:03.942Z,52.07
2018-11-12T06:20:34.068Z,59.53
2018-11-12T06:23:03.621Z,63.60
2018-11-12T06:25:35.831Z,65.23
2018-11-12T06:28:05.269Z,62.77
2018-11-12T06:30:35.892Z,62.23
2018-11-12T06:33:05.161Z,60.00
2018-11-12T06:35:33.868Z,65.60
2018-11-12T06:38:03.297Z,64.87
2018-11-12T06:40:32.801Z,57.93
2018-11-12T06:43:01.646Z,53.37
2018-11-12T06:45:31.700Z,55.17
2018-11-12T06:48:00.907Z,59.70
2018-11-12T06:50:30.878Z,55.67
2018-11-12T06:53:00.085Z,57.77
2018-11-12T06:55:29.113Z,52.67
2018-11-12T06:57:58.621Z,47.13
2018-11-12T07:00:33.157Z,52.60
2018-11-12T07:03:01.746Z,47.07
2018-11-12T07:05:31.051Z,60.67
2018-11-12T07:08:00.304Z,50.27
2018-11-12T07:10:30.152Z,49.17
2018-11-12T07:13:00.826Z,48.70
2018-11-12T07:15:30.972Z,50.00
2018-11-12T07:18:00.254Z,47.30
2018-11-12T07:20:29.538Z,42.57
2018-11-12T07:22:58.637Z,40.93
2018-11-12T07:25:29.161Z,41.93
2018-11-12T07:27:58.468Z,44.27
2018-11-12T07:30:28.408Z,43.53
2018-11-12T07:32:58.015Z,44.07
2018-11-12T07:35:26.941Z,38.47
2018-11-12T07:37:56.613Z,47.30
2018-11-12T07:40:25.341Z,41.13
2018-11-12T07:42:55.015Z,45.33
2018-11-12T07:45:25.427Z,46.40
2018-11-12T07:47:55.329Z,47.17
2018-11-12T07:50:25.897Z,39.97
2018-11-12T07:52:55.103Z,44.37
2018-11-12T07:55:24.815Z,46.63
2018-11-12T07:57:55.655Z,44.27
2018-11-12T08:00:29.781Z,39.90
2018-11-12T08:03:03.933Z,42.20
2018-11-12T08:05:33.082Z,38.97
2018-11-12T08:08:02.476Z,41.37
2018-11-12T08:10:31.937Z,41.57
2018-11-12T08:13:01.752Z,41.83
2018-11-12T08:15:31.073Z,37.23
2018-11-12T08:17:59.920Z,35.33
2018-11-12T08:20:28.785Z,36.90
2018-11-12T08:22:57.788Z,36.90
2018-11-12T08:25:27.710Z,39.07
2018-11-12T08:27:57.113Z,37.90
2018-11-12T08:30:27.247Z,38.47
2018-11-12T08:32:58.656Z,34.57
2018-11-12T08:35:27.740Z,32.70
2018-11-12T08:37:57.199Z,30.77
2018-11-12T08:40:28.252Z,33.10
2018-11-12T08:42:57.128Z,32.10
2018-11-12T08:45:27.013Z,29.20
2018-11-12T08:47:58.493Z,28.30
2018-11-12T08:50:28.099Z,22.73
2018-11-12T08:52:58.299Z,23.80
2018-11-12T08:55:28.642Z,25.47
2018-11-12T08:58:02.637Z,27.30
2018-11-12T09:00:32.028Z,24.17
2018-11-12T09:03:01.301Z,22.37
2018-11-12T09:05:30.834Z,25.47
2018-11-12T09:08:05.445Z,28.27
2018-11-12T09:10:34.910Z,23.63
2018-11-12T09:13:03.629Z,26.10
2018-11-12T09:15:33.327Z,26.30
2018-11-12T09:18:02.997Z,24.87
2018-11-12T09:20:32.413Z,24.83
2018-11-12T09:23:01.569Z,26.27
2018-11-12T09:25:30.608Z,25.60
2018-11-12T09:27:59.678Z,26.57
2018-11-12T09:30:30.012Z,22.07
2018-11-12T09:32:59.701Z,21.47
2018-11-12T09:35:29.789Z,23.13
2018-11-12T09:37:59.759Z,24.93
2018-11-12T09:40:37.178Z,24.70
2018-11-12T09:43:06.391Z,22.73
2018-11-12T09:45:34.913Z,20.53
2018-11-12T09:48:03.637Z,23.63
2018-11-12T09:50:34.236Z,20.57
2018-11-12T09:53:03.885Z,22.23
2018-11-12T09:55:34.554Z,23.87
2018-11-12T09:58:05.268Z,21.87
2018-11-12T10:00:34.552Z,23.07
2018-11-12T10:03:04.446Z,20.93
2018-11-12T10:05:34.772Z,22.33
2018-11-12T10:08:05.194Z,21.47
2018-11-12T10:10:39.503Z,20.27
2018-11-12T10:13:09.243Z,23.60
2018-11-12T10:15:39.262Z,21.50
2018-11-12T10:18:09.209Z,22.00
2018-11-12T10:20:34.107Z,19.70
2018-11-12T10:23:03.197Z,21.67
2018-11-12T10:25:33.222Z,25.63
2018-11-12T10:28:02.326Z,21.90
2018-11-12T10:30:31.849Z,21.27
2018-11-12T10:33:01.162Z,19.13
2018-11-12T10:35:30.274Z,20.90
2018-11-12T10:37:59.457Z,21.50
2018-11-12T10:40:28.552Z,21.57
2018-11-12T10:42:57.371Z,20.03
2018-11-12T10:45:26.318Z,19.13
2018-11-12T10:47:55.810Z,21.20
2018-11-12T10:50:24.821Z,18.47
2018-11-12T10:52:54.020Z,18.33
2018-11-12T10:55:24.436Z,20.60
2018-11-12T10:57:54.317Z,19.27
2018-11-12T11:00:29.277Z,18.40
2018-11-12T11:03:04.449Z,21.53
2018-11-12T11:05:34.467Z,18.87
2018-11-12T11:08:04.350Z,20.13
2018-11-12T11:10:34.521Z,16.83
2018-11-12T11:13:04.749Z,18.00
2018-11-12T11:15:34.089Z,16.10
2018-11-12T11:18:02.809Z,16.73
2018-11-12T11:20:32.217Z,15.90
2018-11-12T11:23:01.563Z,16.33
2018-11-12T11:25:31.273Z,15.13
2018-11-12T11:28:00.195Z,15.13
2018-11-12T11:30:28.937Z,15.00
2018-11-12T11:32:58.770Z,14.60
2018-11-12T11:37:57.674Z,13.47
2018-11-12T11:40:27.432Z,15.27
2018-11-12T11:42:56.969Z,13.87
2018-11-12T11:45:25.706Z,14.33
2018-11-12T11:47:55.672Z,14.90
2018-11-12T11:50:26.083Z,13.47
2018-11-12T11:52:55.386Z,15.07
2018-11-12T11:55:25.417Z,15.93
2018-11-12T11:57:55.525Z,15.23
2018-11-12T12:00:26.358Z,13.33
2018-11-12T12:02:55.957Z,15.70
2018-11-12T12:05:25.232Z,13.90
2018-11-12T12:07:55.525Z,13.83
2018-11-12T12:10:24.714Z,13.60
2018-11-12T12:12:54.138Z,15.50
2018-11-12T12:15:24.234Z,14.87
2018-11-12T12:17:53.540Z,13.87
2018-11-12T12:20:24.977Z,14.67
2018-11-12T12:22:55.328Z,14.53
2018-11-12T12:25:24.875Z,12.27
2018-11-12T12:27:54.217Z,13.87
2018-11-12T12:30:24.969Z,14.70
2018-11-12T12:32:55.266Z,13.57
2018-11-12T12:35:25.634Z,15.53
2018-11-12T12:37:55.313Z,18.23
2018-11-12T12:40:25.063Z,14.70
2018-11-12T12:42:53.940Z,17.27
2018-11-12T12:45:24.618Z,18.77
2018-11-12T12:47:53.966Z,15.80
2018-11-12T12:50:23.058Z,18.13
2018-11-12T12:52:51.868Z,15.30
2018-11-12T12:55:21.717Z,17.20
2018-11-12T12:57:50.808Z,24.00
2018-11-12T13:00:22.531Z,24.43
2018-11-12T13:02:51.832Z,20.20
2018-11-12T13:05:20.907Z,23.73
2018-11-12T13:07:50.163Z,21.10
2018-11-12T13:10:20.412Z,20.17
2018-11-12T13:12:50.462Z,20.63
2018-11-12T13:15:20.510Z,17.40
2018-11-12T13:17:51.208Z,18.30
2018-11-12T13:20:22.577Z,17.90
2018-11-12T13:22:52.858Z,17.47
2018-11-12T13:25:23.048Z,17.07
2018-11-12T13:27:53.285Z,17.40
2018-11-12T13:30:23.205Z,16.30
2018-11-12T13:32:52.837Z,14.03
2018-11-12T13:35:24.681Z,15.10
2018-11-12T13:37:54.597Z,15.83
2018-11-12T13:40:25.126Z,16.67
2018-11-12T13:42:56.685Z,14.33
2018-11-12T13:45:25.890Z,15.30
2018-11-12T13:47:55.404Z,12.03
2018-11-12T13:50:26.140Z,15.07
2018-11-12T13:52:55.561Z,14.55
2018-11-12T13:55:24.823Z,13.77
2018-11-12T13:57:54.972Z,12.33
2018-11-12T14:00:25.710Z,10.13
2018-11-12T14:02:55.661Z,13.57
2018-11-12T14:05:25.565Z,16.35
2018-11-12T14:07:55.085Z,14.03
2018-11-12T14:10:25.909Z,12.07
2018-11-12T14:12:55.811Z,11.63
2018-11-12T14:15:25.024Z,13.73
2018-11-12T14:17:55.120Z,12.73
2018-11-12T14:20:24.515Z,13.20
2018-11-12T14:22:54.054Z,16.20
2018-11-12T14:25:24.385Z,15.40
2018-11-12T14:27:55.097Z,16.67
2018-11-12T14:30:26.042Z,17.30
2018-11-12T14:32:55.324Z,14.20
2018-11-12T14:35:24.840Z,14.30
2018-11-12T14:37:53.766Z,11.90
2018-11-12T14:40:23.034Z,15.70
2018-11-12T14:42:52.563Z,13.07
2018-11-12T14:45:22.248Z,16.67
2018-11-12T14:47:51.619Z,14.50
2018-11-12T14:50:21.019Z,12.50
2018-11-12T14:52:50.797Z,13.60
2018-11-12T14:55:20.056Z,13.47
2018-11-12T14:57:50.040Z,12.03
2018-11-12T15:00:21.292Z,17.07
2018-11-12T15:02:50.600Z,15.53
2018-11-12T15:05:20.924Z,16.23
2018-11-12T15:07:49.545Z,16.07
2018-11-12T15:10:18.240Z,13.50
2018-11-12T15:12:48.621Z,12.23
2018-11-12T15:15:18.469Z,12.80
2018-11-12T15:17:47.676Z,15.43
2018-11-12T15:20:18.400Z,15.73
2018-11-12T15:22:47.367Z,17.23
2018-11-12T15:25:17.497Z,14.30
2018-11-12T15:27:46.305Z,15.03
2018-11-12T15:30:16.789Z,12.40
2018-11-12T15:32:47.113Z,13.40
2018-11-12T15:35:16.889Z,15.30
2018-11-12T15:37:46.622Z,13.77
2018-11-12T15:40:16.448Z,13.03
2018-11-12T15:42:45.897Z,12.47
2018-11-12T15:45:19.426Z,13.80
2018-11-12T15:47:53.829Z,14.93
2018-11-12T15:50:24.941Z,14.03
2018-11-12T15:52:54.276Z,15.00
2018-11-12T15:55:23.950Z,14.73
2018-11-12T15:57:53.466Z,15.87
2018-11-12T16:00:22.009Z,14.97
2018-11-12T16:02:50.691Z,17.80
2018-11-12T16:05:19.996Z,15.60
2018-11-12T16:07:49.297Z,15.17
2018-11-12T16:10:20.230Z,14.73
2018-11-12T16:12:49.525Z,15.77
2018-11-12T16:15:20.252Z,17.20
2018-11-12T16:17:50.006Z,14.17
2018-11-12T16:22:59.229Z,18.40
2018-11-12T16:25:28.870Z,18.20
2018-11-12T16:27:57.967Z,14.63
2018-11-12T16:30:26.383Z,13.83
2018-11-12T16:32:56.177Z,19.33
2018-11-12T16:35:25.617Z,13.77
2018-11-12T16:37:54.997Z,19.67
2018-11-12T16:40:23.982Z,17.70
2018-11-12T16:42:53.795Z,15.53
2018-11-12T16:45:23.022Z,16.87
2018-11-12T16:47:52.520Z,14.13
2018-11-12T16:50:21.185Z,17.10
2018-11-12T16:52:52.137Z,16.80
2018-11-12T16:55:22.322Z,18.57
2018-11-12T16:57:51.773Z,17.40
2018-11-12T17:00:22.000Z,20.87
2018-11-12T17:02:50.473Z,19.27
2018-11-12T17:05:20.333Z,19.17
2018-11-12T17:07:49.409Z,15.33
2018-11-12T17:10:19.911Z,18.87
2018-11-12T17:12:49.833Z,17.60
2018-11-12T17:15:18.901Z,18.60
2018-11-12T17:17:47.905Z,16.83
2018-11-12T17:20:18.221Z,14.13
2018-11-12T17:22:47.411Z,15.80
2018-11-12T17:25:17.734Z,15.17
2018-11-12T17:27:47.158Z,19.70
2018-11-12T17:30:17.400Z,15.50
2018-11-12T17:32:47.081Z,15.43
2018-11-12T17:35:16.891Z,14.63
2018-11-12T17:37:45.553Z,14.07
2018-11-12T17:40:15.734Z,14.67
2018-11-12T17:42:45.869Z,14.50
2018-11-12T17:45:17.182Z,11.90
2018-11-12T17:47:47.753Z,12.87
2018-11-12T17:50:16.570Z,13.00
2018-11-12T17:52:45.774Z,17.40
2018-11-12T17:55:14.416Z,13.87
2018-11-12T17:57:44.590Z,11.43
2018-11-12T18:00:18.217Z,17.17
2018-11-12T18:02:47.909Z,10.90
2018-11-12T18:05:17.245Z,11.23
2018-11-12T18:07:46.784Z,11.57
2018-11-12T18:10:15.636Z,16.43
2018-11-12T18:12:44.988Z,13.37
2018-11-12T18:15:14.909Z,12.13
2018-11-12T18:17:44.442Z,14.47
2018-11-12T18:20:15.144Z,12.40
2018-11-12T18:22:44.161Z,12.17
2018-11-12T18:25:13.597Z,14.00
2018-11-12T18:27:42.490Z,11.73
2018-11-12T18:30:16.684Z,10.43
2018-11-12T18:32:46.105Z,12.13
2018-11-12T18:35:15.289Z,11.27
2018-11-12T18:37:44.089Z,13.20
2018-11-12T18:40:14.105Z,12.33
2018-11-12T18:42:42.976Z,13.83
2018-11-12T18:45:14.148Z,12.33
2018-11-12T18:47:44.241Z,14.63
2018-11-12T18:50:14.968Z,11.83
2018-11-12T18:52:44.358Z,12.60
2018-11-12T18:55:12.941Z,13.40
2018-11-12T18:57:42.309Z,12.90
2018-11-12T19:00:12.037Z,15.70
2018-11-12T19:02:41.442Z,12.03
2018-11-12T19:10:11.937Z,11.40
2018-11-12T19:12:40.808Z,12.23
2018-11-12T19:15:10.921Z,11.60
2018-11-12T19:17:40.120Z,12.60
2018-11-12T19:20:09.236Z,12.40
2018-11-12T19:22:38.844Z,11.07
2018-11-12T19:25:08.120Z,11.37
2018-11-12T19:27:37.148Z,14.50
2018-11-12T19:30:08.212Z,12.07
2018-11-12T19:32:37.278Z,8.97
2018-11-12T19:35:08.236Z,12.50
2018-11-12T19:37:37.314Z,10.57
2018-11-12T19:40:07.564Z,10.37
2018-11-12T19:42:37.609Z,10.33
2018-11-12T19:45:07.088Z,10.20
2018-11-12T19:47:35.957Z,10.60
2018-11-12T19:50:05.465Z,11.87
2018-11-12T19:52:34.103Z,9.97
2018-11-12T19:55:03.184Z,8.07
2018-11-12T19:57:32.470Z,13.67
2018-11-12T20:00:01.385Z,12.07
2018-11-12T20:02:30.369Z,11.00
2018-11-12T20:04:59.746Z,9.63
2018-11-12T20:07:29.123Z,15.83
2018-11-12T20:09:58.169Z,17.17
2018-11-12T20:12:27.270Z,17.33
2018-11-12T20:14:55.914Z,10.50
2018-11-12T20:17:26.241Z,12.73
2018-11-12T20:19:55.508Z,11.27
2018-11-12T20:22:24.492Z,13.13
2018-11-12T20:24:53.422Z,11.73
2018-11-12T20:27:22.205Z,10.43
2018-11-12T20:29:51.116Z,10.57
2018-11-12T20:32:20.031Z,10.03
2018-11-12T20:34:48.876Z,9.27
2018-11-12T20:37:17.882Z,10.37
2018-11-12T20:39:47.081Z,10.80
2018-11-12T20:42:15.957Z,9.43
2018-11-12T20:44:44.568Z,9.80
2018-11-12T20:47:13.449Z,11.30
2018-11-12T20:49:42.382Z,8.47
2018-11-12T20:52:11.680Z,9.03
2018-11-12T20:54:40.717Z,14.47
2018-11-12T20:57:10.189Z,8.03
2018-11-12T20:59:38.720Z,7.97
2018-11-12T21:02:08.104Z,9.37
2018-11-12T21:04:37.457Z,9.73
2018-11-12T21:07:06.952Z,8.23
2018-11-12T21:09:35.668Z,8.87
2018-11-12T21:12:04.685Z,7.10
2018-11-12T21:14:33.456Z,12.13
2018-11-12T21:17:02.177Z,7.80
2018-11-12T21:19:31.496Z,9.37
2018-11-12T21:22:00.430Z,8.07
2018-11-12T21:24:29.261Z,8.13
2018-11-12T21:26:58.352Z,10.87
2018-11-12T21:29:27.503Z,8.77
2018-11-12T21:31:56.581Z,9.33
2018-11-12T21:34:25.820Z,8.33
2018-11-12T21:36:55.174Z,11.27
2018-11-12T21:39:24.233Z,8.30
2018-11-12T21:41:53.349Z,7.93
2018-11-12T21:44:22.425Z,9.77
2018-11-12T21:46:51.424Z,8.33
2018-11-12T21:49:20.648Z,11.37
2018-11-12T21:51:49.317Z,10.53
2018-11-12T21:54:18.541Z,8.30
2018-11-12T21:56:47.751Z,7.07
2018-11-12T21:59:16.697Z,7.87
2018-11-12T22:01:45.896Z,7.20
2018-11-12T22:04:14.823Z,8.93
2018-11-12T22:06:43.482Z,11.30
2018-11-12T22:09:12.627Z,8.67
2018-11-12T22:11:41.505Z,7.87
2018-11-12T22:14:10.623Z,8.93
2018-11-12T22:16:39.828Z,7.37
2018-11-12T22:19:08.727Z,7.33
2018-11-12T22:21:38.078Z,6.40
2018-11-12T22:24:08.149Z,8.53
2018-11-12T22:26:36.833Z,6.07
2018-11-12T22:29:05.836Z,8.67
2018-11-12T22:31:34.527Z,7.17
2018-11-12T22:34:03.889Z,8.43
2018-11-12T22:36:32.764Z,6.97
2018-11-12T22:39:01.919Z,5.83
2018-11-12T22:41:31.126Z,8.60
2018-11-12T22:43:59.824Z,6.40
2018-11-12T22:46:28.614Z,5.60
2018-11-12T22:48:57.460Z,7.40
2018-11-12T22:51:26.301Z,7.60
2018-11-12T22:53:55.261Z,5.77
2018-11-12T22:56:24.101Z,5.63
2018-11-12T22:58:53.328Z,5.27
2018-11-12T23:01:22.177Z,5.13
2018-11-12T23:03:51.028Z,5.00
2018-11-12T23:06:20.470Z,6.50
2018-11-12T23:08:49.560Z,6.53
2018-11-12T23:11:19.140Z,5.27
2018-11-12T23:13:48.196Z,5.40
2018-11-12T23:16:17.281Z,5.97
2018-11-12T23:18:46.197Z,4.77
2018-11-12T23:21:14.978Z,5.97
2018-11-12T23:23:44.083Z,5.43
2018-11-12T23:26:12.983Z,4.93
2018-11-12T23:28:41.678Z,6.27
2018-11-12T23:31:10.385Z,5.00
2018-11-12T23:33:39.259Z,5.53
2018-11-12T23:36:08.092Z,5.60
2018-11-12T23:38:37.541Z,5.37
2018-11-12T23:41:06.763Z,5.30
2018-11-12T23:43:35.792Z,4.97
2018-11-12T23:46:04.495Z,4.70
2018-11-12T23:48:33.278Z,5.57
2018-11-12T23:51:02.045Z,4.80
2018-11-12T23:53:31.048Z,4.53
2018-11-12T23:56:00.091Z,5.97
2018-11-12T23:58:29.163Z,6.17
